Time;durP1;ratioP1;P1;durP2;ratioP2;P2;SDS_P1;SDS_P2;PMS_P1;PMS_P2;Temp;Humidity;BMP_temperature;BMP_pressure;BME280_temperature;BME280_humidity;BME280_pressure;Samples;Min_cycle;Max_cycle;Signal;HPM_P1;HPM_P2
2023/11/27 00:03:38;;;;;;;;;;;;;;;2.02;84.03;99527.88;682622;1262;22572;-80
2023/11/27 00:19:28;;;;;;;36.20;14.40;;;;;;;2.13;83.45;99532.85;682401;1261;124898;-81
2023/11/27 00:35:06;;;;;;;;;;;;;;;2.27;83.16;99537.45;682501;1262;139392;-81
2023/11/27 00:50:45;;;;;;;22.70;9.70;;;;;;;2.40;82.23;99544.52;682354;1260;125376;-81
2023/11/27 01:06:23;;;;;;;23.50;10.10;;;;;;;2.34;82.37;99532.20;682694;1262;23392;-80
2023/11/27 01:22:02;;;;;;;39.00;15.70;;;;;;;2.17;82.52;99527.75;682840;1263;22350;-81
2023/11/27 01:37:41;;;;;;;15.90;8.90;;;;;;;2.15;82.47;99524.95;682770;1262;23178;-81
2023/11/27 01:53:18;;;;;;;18.40;10.00;;;;;;;2.25;81.93;99510.69;682841;1262;23136;-80
2023/11/27 02:08:56;;;;;;;15.50;8.30;;;;;;;2.37;81.56;99497.32;682829;1257;23669;-80
2023/11/27 02:24:33;;;;;;;20.10;9.50;;;;;;;2.23;81.66;99486.50;682607;1263;138969;-81
2023/11/27 02:40:11;;;;;;;18.30;8.80;;;;;;;2.26;81.78;99488.34;682789;1262;22478;-80
2023/11/27 02:55:48;;;;;;;14.50;8.50;;;;;;;2.29;81.74;99492.33;682786;1262;23454;-80
2023/11/27 03:11:25;;;;;;;18.40;8.60;;;;;;;2.35;81.41;99483.63;682667;1262;22168;-80
2023/11/27 03:27:02;;;;;;;;;;;;;;;2.36;81.32;99472.16;682440;1263;139473;-80
2023/11/27 03:42:41;;;;;;;18.90;9.40;;;;;;;2.28;81.63;99464.42;682585;1258;124888;-80
2023/11/27 03:58:17;;;;;;;20.80;9.20;;;;;;;2.41;81.05;99457.52;682678;1263;22246;-80
2023/11/27 04:13:54;;;;;;;;;;;;;;;2.36;81.45;99445.60;682913;1263;138291;-80
2023/11/27 04:29:51;;;;;;;15.80;8.70;;;;;;;2.43;81.20;99450.66;682567;1272;22209;-80
2023/11/27 04:45:28;;;;;;;17.30;8.70;;;;;;;2.29;81.50;99444.70;682830;1262;22226;-81
2023/11/27 05:01:06;;;;;;;;;;;;;;;2.22;81.57;99445.01;682738;1261;22477;-80
2023/11/27 05:16:42;;;;;;;41.80;18.10;;;;;;;2.22;81.54;99427.35;675171;1261;10144852;-80
2023/11/27 05:32:19;;;;;;;;;;;;;;;2.29;81.38;99435.35;682690;1262;22535;-80
2023/11/27 05:48:00;;;;;;;24.00;13.80;;;;;;;2.29;81.95;99443.48;682756;1263;22280;-80
2023/11/27 06:03:38;;;;;;;84.00;26.00;;;;;;;2.52;81.30;99455.72;682174;1262;139583;-80
2023/11/27 06:19:14;;;;;;;;;;;;;;;2.64;81.41;99458.90;682634;1262;139968;-80
2023/11/27 06:35:15;;;;;;;145.30;43.60;;;;;;;2.59;81.42;99448.36;682427;1261;125859;-80
2023/11/27 06:50:54;;;;;;;78.70;29.80;;;;;;;2.71;81.17;99458.59;682325;1263;139992;-80
2023/11/27 07:06:38;;;;;;;148.70;39.10;;;;;;;2.82;80.81;99467.02;682543;1257;140614;-80
2023/11/27 07:22:16;;;;;;;47.20;19.60;;;;;;;2.62;81.97;99465.74;683103;1260;140851;-80
2023/11/27 07:37:52;;;;;;;58.20;26.50;;;;;;;2.70;82.59;99471.46;683287;1257;139076;-80
2023/11/27 07:53:30;;;;;;;37.40;16.20;;;;;;;2.79;82.51;99469.26;683285;1257;138885;-80
2023/11/27 08:09:07;;;;;;;31.40;15.40;;;;;;;2.98;82.72;99465.55;683170;1260;140579;-79
2023/11/27 08:24:44;;;;;;;35.90;17.30;;;;;;;3.16;82.58;99472.61;683292;1260;23097;-79
2023/11/27 08:40:21;;;;;;;52.00;22.80;;;;;;;3.36;82.31;99467.26;683287;1260;22426;-80
2023/11/27 08:56:00;;;;;;;66.80;32.60;;;;;;;3.42;81.69;99456.43;683122;1262;138095;-80
2023/11/27 09:11:37;;;;;;;54.70;31.20;;;;;;;3.83;82.22;99457.67;683346;1259;138913;-80
2023/11/27 09:27:14;;;;;;;47.70;25.60;;;;;;;3.97;81.62;99465.77;683480;1261;22263;-80
2023/11/27 09:42:53;;;;;;;57.80;25.30;;;;;;;3.94;81.44;99472.95;683425;1259;139235;-80
2023/11/27 09:58:30;;;;;;;52.20;21.20;;;;;;;4.34;80.13;99467.36;683510;1262;23099;-80
2023/11/27 10:14:08;;;;;;;204.70;60.60;;;;;;;4.52;78.06;99448.55;683366;1259;22377;-81
2023/11/27 10:30:25;;;;;;;31.50;15.30;;;;;;;4.26;77.11;99441.03;683100;1257;22413;-81
2023/11/27 10:46:03;;;;;;;162.80;46.20;;;;;;;4.32;77.13;99433.98;683394;1262;138168;-81
2023/11/27 11:02:17;;;;;;;38.20;21.40;;;;;;;4.18;76.54;99427.71;683151;1260;138704;-80
2023/11/27 11:18:34;;;;;;;207.20;61.70;;;;;;;3.81;76.29;99425.13;683016;1259;139805;-80
2023/11/27 11:34:12;;;;;;;58.60;29.30;;;;;;;3.83;76.29;99418.77;683222;1257;139305;-80
2023/11/27 11:49:50;;;;;;;118.40;47.70;;;;;;;3.45;76.25;99415.22;683155;1259;138601;-80
2023/11/27 12:05:27;;;;;;;249.90;85.80;;;;;;;3.06;77.75;99406.98;683139;1261;139658;-80
2023/11/27 12:21:10;;;;;;;152.90;47.30;;;;;;;3.12;78.81;99395.67;683919;1256;22346;-80
2023/11/27 12:37:01;;;;;;;158.60;52.10;;;;;;;3.01;79.13;99371.02;683438;1259;22244;-80
2023/11/27 12:53:10;;;;;;;51.50;21.20;;;;;;;3.14;79.63;99361.84;683009;1257;139081;-80
2023/11/27 13:08:47;;;;;;;57.00;26.20;;;;;;;3.03;79.97;99360.88;682823;1259;139157;-79
2023/11/27 13:24:29;;;;;;;89.90;34.00;;;;;;;3.10;80.21;99357.08;682825;1259;138701;-80
2023/11/27 13:40:08;;;;;;;78.30;29.60;;;;;;;3.51;79.80;99349.60;682853;1270;139369;-80
2023/11/27 13:55:54;;;;;;;66.70;25.00;;;;;;;3.62;78.79;99346.44;682792;1260;139594;-80
2023/11/27 14:11:33;;;;;;;68.20;24.80;;;;;;;3.53;77.77;99331.67;683121;1260;138783;-81
2023/11/27 14:43:06;;;;;;;60.30;20.90;;;;;;;3.40;77.46;99328.87;682833;1259;139837;-81
2023/11/27 14:58:43;;;;;;;37.80;17.60;;;;;;;3.39;77.23;99310.41;683317;1261;138867;-81
2023/11/27 15:14:20;;;;;;;42.80;17.00;;;;;;;3.25;77.44;99286.93;682788;1260;138784;-81
2023/11/27 15:29:57;;;;;;;126.60;47.10;;;;;;;3.19;77.87;99279.21;683014;1269;138829;-80
2023/11/27 15:45:34;;;;;;;81.10;31.20;;;;;;;3.04;78.60;99268.70;682886;1260;139582;-80
2023/11/27 16:01:12;;;;;;;116.80;40.60;;;;;;;2.93;78.99;99256.05;683008;1260;139112;-80
2023/11/27 16:16:51;;;;;;;82.30;32.70;;;;;;;2.92;79.37;99242.30;683326;1260;139911;-80
2023/11/27 16:32:27;;;;;;;100.70;37.20;;;;;;;2.86;79.20;99227.36;682719;1260;139455;-80
2023/11/27 16:48:05;;;;;;;134.80;39.90;;;;;;;2.68;79.02;99208.42;683028;1257;139734;-80
2023/11/27 17:03:42;;;;;;;56.20;22.20;;;;;;;2.36;79.03;99202.08;683305;1262;139674;-80
2023/11/27 17:19:21;;;;;;;;;;;;;;;2.19;79.61;99202.59;675156;1261;10139170;-80
2023/11/27 17:34:57;;;;;;;97.50;36.20;;;;;;;2.38;79.63;99190.56;683007;1262;125381;-80
2023/11/27 17:50:42;;;;;;;116.90;41.50;;;;;;;2.22;80.80;99172.23;682865;1261;139288;-80
2023/11/27 18:06:24;;;;;;;121.40;44.30;;;;;;;2.34;80.58;99170.11;682941;1260;139644;-80
2023/11/27 18:22:05;;;;;;;95.70;38.00;;;;;;;2.42;81.11;99174.42;682929;1259;139381;-80
2023/11/27 18:37:47;;;;;;;105.70;38.40;;;;;;;2.39;82.33;99163.45;682898;1262;138773;-80
2023/11/27 18:53:25;;;;;;;330.40;89.00;;;;;;;2.45;82.53;99152.59;682825;1262;139816;-80
2023/11/27 19:09:01;;;;;;;207.50;68.20;;;;;;;2.56;82.56;99146.62;682813;1262;138785;-79
2023/11/27 19:24:40;;;;;;;94.40;41.50;;;;;;;2.62;82.74;99133.30;682957;1262;139487;-80
2023/11/27 19:40:14;;;;;;;72.90;25.60;;;;;;;2.74;83.04;99117.35;683153;1262;139511;-80
2023/11/27 19:55:56;;;;;;;68.20;23.90;;;;;;;2.81;82.88;99118.20;682771;1261;139364;-80
2023/11/27 20:11:35;;;;;;;59.40;23.30;;;;;;;2.87;82.90;99094.81;683302;1262;138767;-79
2023/11/27 20:27:06;;;;;;;55.20;22.60;;;;;;;2.87;82.73;99086.16;682984;1259;139570;-79
2023/11/27 20:42:34;;;;;;;73.40;31.60;;;;;;;2.89;82.40;99060.33;683037;1263;139472;-80
2023/11/27 20:58:12;;;;;;;84.90;32.20;;;;;;;2.84;82.53;99065.86;682788;1262;139284;-80
2023/11/27 21:13:52;;;;;;;75.10;32.70;;;;;;;2.38;83.31;99058.06;682569;1262;139124;-80
2023/11/27 21:29:30;;;;;;;57.80;28.10;;;;;;;2.09;83.84;99059.23;682839;1262;138659;-80
2023/11/27 21:45:07;;;;;;;55.90;21.00;;;;;;;1.99;83.94;99055.67;682577;1258;140096;-79
2023/11/27 22:00:45;;;;;;;63.10;24.20;;;;;;;1.89;84.19;99045.50;682539;1259;139733;-79
2023/11/27 22:16:22;;;;;;;66.00;21.50;;;;;;;1.87;84.65;99044.81;682522;1262;139310;-79
2023/11/27 22:31:59;;;;;;;45.00;18.10;;;;;;;1.76;84.27;99036.80;682615;1262;139112;-79
2023/11/27 22:47:36;;;;;;;40.00;17.80;;;;;;;1.42;84.95;99024.70;682807;1263;139444;-79
2023/11/27 23:03:13;;;;;;;44.60;19.10;;;;;;;1.15;85.24;99007.14;682950;1260;139930;-79
2023/11/27 23:18:50;;;;;;;44.60;16.10;;;;;;;1.11;85.56;99003.94;682978;1260;139107;-79
2023/11/27 23:34:27;;;;;;;50.20;17.00;;;;;;;1.00;86.02;98998.80;682946;1260;138802;-79
2023/11/27 23:50:04;;;;;;;40.70;16.80;;;;;;;1.09;85.94;98995.41;683071;1260;138881;-79
